Sky Valley Resort, GA

5:26 AM EST on December 04, 2016 (GMT -0500)
Sky Valley, GA | | Change Station

Elev 3750 ft 34.98 °N, 83.33 °W | Updated 49 seconds ago

Rain
Rain
37.9 °F
Feels Like 38 °F
N
1.0
Wind Variable Wind from ESE
Gusts 8.0 mph

Today
High -- | Low -- °F
--% Chance of Precip.
Yesterday
High -- | Low -- °F
Precip. -- in
Pressure 30.18 in
Visibility 5.0 miles
Clouds Scattered Clouds 700 ft
Overcast 2400 ft
Windchill 38 °F
Dew Point 36 °F
Humidity 92%
Rainfall 0.23 in
Snow Depth Not available.
7:25 AM 5:21 PM
Waxing Crescent, 21% visible
METAR KRHP 041005Z AUTO 00000KT 5SM RA SCT007 OVC024 06/06 A3018 RMK AO2 P0001 T00550055
Pressure 30.18 in
Visibility 5.0 miles
Clouds Scattered Clouds 700 ft
Overcast 2400 ft
Windchill 38 °F
Dew Point 36 °F
Humidity 92%
Rainfall 0.23 in
Snow Depth Not available.
7:25 AM 5:21 PM
Waxing Crescent, 21% visible
METAR KRHP 041005Z AUTO 00000KT 5SM RA SCT007 OVC024 06/06 A3018 RMK AO2 P0001 T00550055

10-Day Weather Forecast

Almanac

Astronomy

Dec. 04, 2016 Rise Set
Actual Time
Civil Twilight
Nautical Twilight
Astronomical Twilight
Moon
Length of Visible Light
Length of Day
Tomorrow will be .
, % of the Moon is Illuminated

Today's Extremes

State Highs State Lows

Community

WunderPhotos

Upload Photos

1,955,591 photos uploaded!

WunderBlog® & News

Nearby

Air Quality

  Air Quality AQ Index Pollutant
Not available.

Snow Depth

Station Depth Elevation

Earthquake Activity

City Distance Mag. Time & Date
Minimum magnitude displayed is 2.5.

Coastal Water Temperatures

Place Temperature

Stations

Nearby Weather Stations

Station Location Temp. Windchill Dew Point Humidity Wind Precip. Elev Updated Type
                   

Watches & Warnings

There are currently no watches in effect.